createdAt,value
2024-01-20T00:01:16.705Z,21.55
2024-01-20T00:03:49.099Z,16.08
2024-01-20T00:06:16.796Z,17.17
2024-01-20T00:08:44.844Z,20.50
2024-01-20T00:11:12.515Z,20.42
2024-01-20T00:13:40.219Z,21.25
2024-01-20T00:16:07.701Z,14.98
2024-01-20T00:18:34.771Z,15.48
2024-01-20T00:21:02.128Z,18.33
2024-01-20T00:23:29.188Z,17.27
2024-01-20T00:25:56.631Z,17.38
2024-01-20T00:28:23.953Z,17.55
2024-01-20T00:30:51.279Z,17.00
2024-01-20T00:33:18.915Z,18.80
2024-01-20T00:35:46.466Z,15.88
2024-01-20T00:38:13.571Z,16.08
2024-01-20T00:40:41.749Z,16.70
2024-01-20T00:43:10.437Z,12.88
2024-01-20T00:45:37.816Z,16.92
2024-01-20T00:48:05.439Z,12.50
2024-01-20T00:50:32.756Z,15.48
2024-01-20T00:52:59.794Z,17.90
2024-01-20T00:55:27.365Z,14.68
2024-01-20T00:57:54.447Z,18.30
2024-01-20T01:00:21.770Z,14.45
2024-01-20T01:02:48.965Z,13.20
2024-01-20T01:05:16.451Z,14.35
2024-01-20T01:07:43.491Z,12.07
2024-01-20T01:10:11.064Z,15.80
2024-01-20T01:12:38.226Z,14.40
2024-01-20T01:15:06.609Z,15.25
2024-01-20T01:17:34.370Z,14.88
2024-01-20T01:20:02.476Z,12.75
2024-01-20T01:22:29.640Z,11.48
2024-01-20T01:24:56.876Z,13.20
2024-01-20T01:27:23.913Z,11.30
2024-01-20T01:29:51.348Z,10.68
2024-01-20T01:32:19.232Z,10.43
2024-01-20T01:34:46.720Z,14.70
2024-01-20T01:37:13.833Z,9.73
2024-01-20T01:39:42.637Z,13.30
2024-01-20T01:42:10.706Z,10.07
2024-01-20T01:44:37.974Z,12.45
2024-01-20T01:47:05.422Z,10.70
2024-01-20T01:49:33.493Z,11.50
2024-01-20T01:52:00.649Z,11.63
2024-01-20T01:54:28.370Z,13.05
2024-01-20T01:57:01.257Z,8.32
2024-01-20T01:59:30.387Z,7.95
2024-01-20T02:01:57.352Z,14.98
2024-01-20T02:04:25.076Z,9.05
2024-01-20T02:06:53.593Z,12.15
2024-01-20T02:09:22.004Z,7.05
2024-01-20T02:11:50.280Z,8.43
2024-01-20T02:14:19.769Z,8.25
2024-01-20T02:16:46.847Z,10.43
2024-01-20T02:19:14.708Z,10.30
2024-01-20T02:21:42.533Z,12.70
2024-01-20T02:24:11.277Z,10.20
2024-01-20T02:26:38.283Z,9.07
2024-01-20T02:29:05.584Z,12.73
2024-01-20T02:31:32.714Z,12.13
2024-01-20T02:34:01.487Z,5.88
2024-01-20T02:36:28.608Z,7.95
2024-01-20T02:38:56.119Z,8.57
2024-01-20T02:41:23.160Z,11.85
2024-01-20T02:43:50.632Z,6.97
2024-01-20T02:46:17.672Z,10.45
2024-01-20T02:48:45.117Z,10.77
2024-01-20T02:51:13.281Z,8.63
2024-01-20T02:53:40.588Z,12.55
2024-01-20T02:56:08.238Z,7.75
2024-01-20T02:58:35.475Z,7.68
2024-01-20T03:01:03.532Z,8.02
2024-01-20T03:03:31.280Z,12.45
2024-01-20T03:05:58.406Z,7.63
2024-01-20T03:08:25.956Z,7.65
2024-01-20T03:10:52.975Z,11.75
2024-01-20T03:13:20.326Z,11.63
2024-01-20T03:15:47.288Z,12.48
2024-01-20T03:18:14.722Z,8.25
2024-01-20T03:20:41.780Z,7.93
2024-01-20T03:23:09.018Z,6.82
2024-01-20T03:25:36.173Z,11.07
2024-01-20T03:28:03.837Z,9.27
2024-01-20T03:30:30.991Z,9.35
2024-01-20T03:32:59.358Z,10.00
2024-01-20T03:35:26.462Z,9.45
2024-01-20T03:37:53.867Z,12.35
2024-01-20T03:40:20.743Z,15.18
2024-01-20T03:42:47.981Z,7.50
2024-01-20T03:45:15.190Z,11.82
2024-01-20T03:47:42.603Z,11.27
2024-01-20T03:50:11.215Z,10.30
2024-01-20T03:52:38.536Z,8.93
2024-01-20T03:55:07.397Z,9.05
2024-01-20T03:57:34.619Z,9.80
2024-01-20T04:00:01.779Z,12.73
2024-01-20T04:02:29.134Z,18.23
2024-01-20T04:04:56.173Z,12.35
2024-01-20T04:07:23.611Z,10.52
2024-01-20T04:09:50.565Z,13.90
2024-01-20T04:12:18.002Z,13.77
2024-01-20T04:14:44.976Z,9.93
2024-01-20T04:17:12.441Z,10.52
2024-01-20T04:19:39.780Z,12.02
2024-01-20T04:22:07.028Z,13.65
2024-01-20T04:24:34.058Z,13.35
2024-01-20T04:27:01.481Z,11.25
2024-01-20T04:29:28.470Z,11.05
2024-01-20T04:31:55.842Z,13.70
2024-01-20T04:34:22.798Z,13.63
2024-01-20T04:36:50.142Z,9.50
2024-01-20T04:39:17.190Z,12.07
2024-01-20T04:41:44.425Z,12.77
2024-01-20T04:44:23.439Z,8.43
2024-01-20T04:46:50.673Z,10.80
2024-01-20T04:49:17.773Z,9.18
2024-01-20T04:51:46.141Z,9.02
2024-01-20T04:54:13.198Z,10.50
2024-01-20T04:56:40.448Z,7.80
2024-01-20T04:59:07.466Z,8.73
2024-01-20T05:01:35.099Z,8.05
2024-01-20T05:04:02.299Z,10.40
2024-01-20T05:06:29.690Z,8.15
2024-01-20T05:08:56.690Z,8.55
2024-01-20T05:11:23.976Z,8.85
2024-01-20T05:13:50.902Z,6.15
2024-01-20T05:16:19.271Z,7.82
2024-01-20T05:18:46.796Z,8.35
2024-01-20T05:21:15.252Z,5.28
2024-01-20T05:23:42.335Z,12.38
2024-01-20T05:26:09.587Z,8.68
2024-01-20T05:28:36.535Z,8.50
2024-01-20T05:31:03.842Z,9.00
2024-01-20T05:33:31.014Z,7.60
2024-01-20T05:36:00.512Z,10.00
2024-01-20T05:38:27.496Z,7.32
2024-01-20T05:40:54.843Z,7.57
2024-01-20T05:43:21.818Z,6.93
2024-01-20T05:45:49.014Z,8.38
2024-01-20T05:48:16.256Z,10.93
2024-01-20T05:50:43.653Z,8.93
2024-01-20T05:53:10.684Z,9.57
2024-01-20T05:55:38.008Z,7.05
2024-01-20T05:58:04.932Z,7.18
2024-01-20T06:00:32.739Z,11.73
2024-01-20T06:02:59.853Z,9.85
2024-01-20T06:05:27.225Z,9.85
2024-01-20T06:07:54.324Z,8.32
2024-01-20T06:10:21.751Z,7.80
2024-01-20T06:12:48.681Z,9.77
2024-01-20T06:15:16.488Z,8.95
2024-01-20T06:17:43.496Z,12.07
2024-01-20T06:20:11.829Z,7.15
2024-01-20T06:22:40.439Z,9.57
2024-01-20T06:25:08.394Z,8.95
2024-01-20T06:27:35.519Z,8.43
2024-01-20T06:30:04.795Z,10.40
2024-01-20T06:32:31.890Z,8.48
2024-01-20T06:34:59.384Z,10.95
2024-01-20T06:37:26.393Z,8.43
2024-01-20T06:39:54.291Z,9.07
2024-01-20T06:42:21.289Z,9.70
2024-01-20T06:44:48.988Z,8.15
2024-01-20T06:47:16.112Z,9.43
2024-01-20T06:49:43.603Z,11.25
2024-01-20T06:52:10.969Z,7.10
2024-01-20T06:54:40.276Z,8.35
2024-01-20T06:57:07.330Z,8.38
2024-01-20T06:59:34.606Z,7.68
2024-01-20T07:02:02.050Z,7.05
2024-01-20T07:04:30.608Z,9.57
2024-01-20T07:06:57.740Z,9.20
2024-01-20T07:09:26.617Z,9.38
2024-01-20T07:11:56.605Z,8.38
2024-01-20T07:14:25.078Z,19.17
2024-01-20T07:16:52.287Z,13.10
2024-01-20T07:19:25.153Z,14.73
2024-01-20T07:22:36.647Z,12.50
2024-01-20T07:25:05.644Z,12.32
2024-01-20T07:27:32.618Z,9.57
2024-01-20T07:30:00.052Z,10.15
2024-01-20T07:32:27.054Z,14.82
2024-01-20T07:34:54.545Z,9.15
2024-01-20T07:37:41.986Z,13.48
2024-01-20T07:40:10.981Z,9.45
2024-01-20T07:42:38.176Z,10.73
2024-01-20T07:45:06.246Z,11.55
2024-01-20T07:47:33.360Z,12.10
2024-01-20T07:50:00.603Z,11.95
2024-01-20T07:52:27.635Z,12.73
2024-01-20T07:54:54.985Z,12.85
2024-01-20T07:57:22.076Z,12.90
2024-01-20T07:59:49.605Z,11.45
2024-01-20T08:02:16.662Z,12.57
2024-01-20T08:04:59.889Z,15.80
2024-01-20T08:07:30.249Z,17.65
2024-01-20T08:09:57.644Z,14.65
2024-01-20T08:12:24.795Z,10.20
2024-01-20T08:15:21.625Z,12.00
2024-01-20T08:17:48.568Z,10.93
2024-01-20T08:20:15.855Z,13.32
2024-01-20T08:22:43.015Z,9.73
2024-01-20T08:25:10.987Z,9.18
2024-01-20T08:28:10.675Z,10.13
2024-01-20T08:30:38.043Z,8.10
2024-01-20T08:33:06.862Z,8.25
2024-01-20T08:35:38.011Z,7.60
2024-01-20T08:38:04.978Z,12.65
2024-01-20T08:40:32.302Z,11.05
2024-01-20T08:42:59.352Z,9.82
2024-01-20T08:45:26.933Z,8.38
2024-01-20T08:47:56.256Z,11.15
2024-01-20T08:50:23.455Z,13.77
2024-01-20T08:52:50.446Z,10.73
2024-01-20T08:55:28.912Z,7.85
2024-01-20T08:57:58.109Z,12.35
2024-01-20T09:00:43.952Z,14.27
2024-01-20T09:03:14.429Z,10.77
2024-01-20T09:05:41.756Z,12.20
2024-01-20T09:08:10.688Z,13.57
2024-01-20T09:10:38.836Z,10.07
2024-01-20T09:13:05.934Z,10.82
2024-01-20T09:15:56.966Z,10.63
2024-01-20T09:18:25.113Z,15.02
2024-01-20T09:20:52.613Z,11.98
2024-01-20T09:23:19.636Z,11.32
2024-01-20T09:25:46.925Z,9.98
2024-01-20T09:28:15.470Z,15.70
2024-01-20T09:30:42.950Z,12.30
2024-01-20T09:33:10.515Z,10.30
2024-01-20T09:35:38.786Z,11.70
2024-01-20T09:38:06.341Z,9.80
2024-01-20T09:40:36.225Z,11.23
2024-01-20T09:43:05.222Z,8.95
2024-01-20T09:45:39.501Z,12.75
2024-01-20T09:48:08.407Z,10.93
2024-01-20T09:50:36.100Z,8.40
2024-01-20T09:53:16.188Z,14.63
2024-01-20T09:55:46.456Z,26.60
2024-01-20T09:58:17.349Z,19.33
2024-01-20T10:00:45.589Z,15.10
2024-01-20T10:03:13.776Z,10.57
2024-01-20T10:05:41.511Z,14.82
2024-01-20T10:08:08.659Z,22.15
2024-01-20T10:10:36.316Z,11.40
2024-01-20T10:13:04.105Z,18.10
2024-01-20T10:15:34.993Z,11.30
2024-01-20T10:18:12.599Z,16.70
2024-01-20T10:20:40.978Z,11.20
2024-01-20T10:23:08.881Z,13.30
2024-01-20T10:25:36.709Z,16.08
2024-01-20T10:28:04.270Z,12.95
2024-01-20T10:30:31.939Z,12.40
2024-01-20T10:33:09.141Z,12.55
2024-01-20T10:35:40.067Z,16.15
2024-01-20T10:38:15.667Z,12.65
2024-01-20T10:40:46.673Z,12.88
2024-01-20T10:43:17.147Z,11.27
2024-01-20T10:46:06.709Z,12.77
2024-01-20T10:48:35.738Z,10.20
2024-01-20T10:51:14.123Z,10.88
2024-01-20T10:54:18.881Z,10.80
2024-01-20T10:56:46.307Z,15.17
2024-01-20T10:59:18.188Z,11.57
2024-01-20T11:01:46.903Z,10.02
2024-01-20T11:04:20.524Z,9.45
2024-01-20T11:06:48.714Z,9.37
2024-01-20T11:09:26.361Z,12.30
2024-01-20T11:12:08.278Z,10.68
2024-01-20T11:14:36.815Z,12.20
2024-01-20T11:17:16.507Z,9.73
2024-01-20T11:19:43.649Z,14.32
2024-01-20T11:22:35.497Z,13.25
2024-01-20T11:25:09.670Z,11.25
2024-01-20T11:27:55.537Z,11.35
2024-01-20T11:30:30.702Z,10.88
2024-01-20T11:32:59.261Z,9.18
2024-01-20T11:35:26.743Z,13.25
2024-01-20T11:38:00.180Z,13.98
2024-01-20T11:40:33.578Z,9.70
2024-01-20T11:43:09.137Z,10.85
2024-01-20T11:45:36.247Z,10.65
2024-01-20T11:48:04.338Z,13.27
2024-01-20T11:50:31.393Z,10.43
2024-01-20T11:52:58.788Z,11.52
2024-01-20T11:55:26.960Z,11.05
2024-01-20T11:57:57.278Z,10.77
2024-01-20T12:00:24.522Z,12.95
2024-01-20T12:02:53.598Z,17.02
2024-01-20T12:05:22.072Z,10.23
2024-01-20T12:10:53.642Z,9.88
2024-01-20T12:13:27.643Z,13.60
2024-01-20T12:15:55.412Z,7.40
2024-01-20T12:18:22.881Z,10.10
2024-01-20T12:20:49.962Z,10.43
2024-01-20T12:23:21.620Z,9.88
2024-01-20T12:25:54.164Z,8.70
2024-01-20T12:28:22.620Z,8.25
2024-01-20T12:30:50.496Z,9.43
2024-01-20T12:33:18.111Z,11.43
2024-01-20T12:35:51.760Z,8.98
2024-01-20T12:38:18.971Z,6.68
2024-01-20T12:40:46.185Z,9.98
2024-01-20T12:43:22.759Z,12.60
2024-01-20T12:45:49.823Z,9.50
2024-01-20T12:48:17.237Z,7.47
2024-01-20T12:50:44.923Z,13.95
2024-01-20T12:53:12.437Z,6.88
2024-01-20T12:55:43.220Z,7.68
2024-01-20T12:58:10.489Z,7.57
2024-01-20T13:00:43.853Z,8.98
2024-01-20T13:03:11.307Z,9.25
2024-01-20T13:05:38.742Z,6.90
2024-01-20T13:08:06.829Z,9.50
2024-01-20T13:10:33.972Z,9.82
2024-01-20T13:13:01.315Z,7.97
2024-01-20T13:15:28.450Z,10.20
2024-01-20T13:17:56.379Z,8.25
2024-01-20T13:20:25.329Z,8.52
2024-01-20T13:22:53.287Z,7.47
2024-01-20T13:25:22.130Z,7.28
2024-01-20T13:27:50.271Z,6.53
2024-01-20T13:30:20.020Z,10.93
2024-01-20T13:32:47.839Z,11.68
2024-01-20T13:35:15.150Z,8.38
2024-01-20T13:37:42.455Z,9.85
2024-01-20T13:40:11.178Z,8.23
2024-01-20T13:42:46.086Z,8.20
2024-01-20T13:45:22.933Z,12.40
2024-01-20T13:47:53.356Z,12.15
2024-01-20T13:50:49.286Z,12.57
2024-01-20T13:53:16.902Z,7.32
2024-01-20T13:56:00.796Z,8.40
2024-01-20T13:58:33.294Z,8.68
2024-01-20T14:01:04.959Z,14.75
2024-01-20T14:03:36.293Z,9.70
2024-01-20T14:06:04.131Z,10.90
2024-01-20T14:08:31.665Z,7.70
2024-01-20T14:10:58.775Z,9.57
2024-01-20T14:13:40.566Z,8.38
2024-01-20T14:16:28.198Z,7.47
2024-01-20T14:19:09.785Z,7.57
2024-01-20T14:21:37.152Z,9.25
2024-01-20T14:24:04.995Z,10.00
2024-01-20T14:26:32.161Z,9.90
2024-01-20T14:28:59.434Z,10.05
2024-01-20T14:31:26.490Z,8.43
2024-01-20T14:34:42.442Z,8.85
2024-01-20T14:37:14.929Z,10.93
2024-01-20T14:39:42.450Z,7.15
2024-01-20T14:42:23.102Z,7.82
2024-01-20T14:45:19.420Z,10.75
2024-01-20T14:47:47.998Z,10.82
2024-01-20T14:50:15.485Z,11.30
2024-01-20T14:53:04.855Z,12.93
2024-01-20T14:55:32.264Z,9.13
2024-01-20T14:58:02.416Z,8.35
2024-01-20T15:00:55.285Z,9.05
2024-01-20T15:03:22.409Z,10.68
2024-01-20T15:06:26.879Z,8.80
2024-01-20T15:08:57.552Z,7.88
2024-01-20T15:11:25.402Z,9.38
2024-01-20T15:13:52.406Z,9.57
2024-01-20T15:16:20.017Z,11.45
2024-01-20T15:18:47.245Z,9.85
2024-01-20T15:21:15.213Z,9.95
2024-01-20T15:24:05.832Z,7.55
2024-01-20T15:26:33.273Z,10.52
2024-01-20T15:29:00.355Z,9.93
2024-01-20T15:31:27.799Z,13.07
2024-01-20T15:33:57.686Z,11.18
2024-01-20T15:36:25.110Z,9.88
2024-01-20T15:39:15.936Z,11.23
2024-01-20T15:41:47.082Z,10.77
2024-01-20T15:44:14.540Z,11.60
2024-01-20T15:46:41.902Z,12.20
2024-01-20T15:49:09.150Z,10.75
2024-01-20T15:51:39.656Z,10.52
2024-01-20T15:54:06.828Z,16.02
2024-01-20T15:56:41.989Z,8.60
2024-01-20T15:59:08.885Z,10.75
2024-01-20T16:01:36.563Z,10.40
2024-01-20T16:04:04.329Z,17.42
2024-01-20T16:06:31.983Z,8.52
2024-01-20T16:08:58.978Z,14.43
2024-01-20T16:11:27.207Z,11.52
2024-01-20T16:13:54.290Z,12.52
2024-01-20T16:16:21.864Z,11.48
2024-01-20T16:18:49.504Z,8.70
2024-01-20T16:21:23.539Z,11.70
2024-01-20T16:23:54.472Z,9.25
2024-01-20T16:26:22.536Z,11.48
2024-01-20T16:28:50.296Z,10.23
2024-01-20T16:31:18.063Z,11.00
2024-01-20T16:33:46.575Z,10.23
2024-01-20T16:36:19.677Z,10.70
2024-01-20T16:38:53.609Z,12.10
2024-01-20T16:41:20.812Z,11.18
2024-01-20T16:43:47.746Z,11.02
2024-01-20T16:46:14.963Z,10.27
2024-01-20T16:48:42.949Z,10.23
2024-01-20T16:51:17.775Z,13.73
2024-01-20T16:53:49.503Z,10.32
2024-01-20T16:56:16.763Z,10.10
2024-01-20T16:58:56.647Z,10.00
2024-01-20T17:01:26.173Z,10.55
2024-01-20T17:04:01.117Z,8.38
2024-01-20T17:06:29.925Z,12.75
2024-01-20T17:09:02.011Z,11.00
2024-01-20T17:11:38.514Z,10.00
2024-01-20T17:14:05.514Z,9.93
2024-01-20T17:16:37.082Z,13.23
2024-01-20T17:19:06.740Z,9.43
2024-01-20T17:21:34.705Z,8.63
2024-01-20T17:24:01.801Z,11.63
2024-01-20T17:26:30.670Z,11.98
2024-01-20T17:28:58.722Z,9.52
2024-01-20T17:31:34.718Z,12.88
2024-01-20T17:34:04.515Z,11.27
2024-01-20T17:36:32.188Z,13.15
2024-01-20T17:39:01.435Z,16.02
2024-01-20T17:41:40.888Z,13.73
2024-01-20T17:44:07.893Z,14.45
2024-01-20T17:46:35.229Z,19.95
2024-01-20T17:49:02.275Z,14.40
2024-01-20T17:51:31.170Z,14.35
2024-01-20T17:53:58.209Z,13.90
2024-01-20T17:56:34.556Z,17.33
2024-01-20T17:59:26.979Z,15.07
2024-01-20T18:01:55.791Z,16.30
2024-01-20T18:04:23.696Z,14.25
2024-01-20T18:06:51.088Z,12.52
2024-01-20T18:09:18.603Z,21.05
2024-01-20T18:11:46.022Z,18.40
2024-01-20T18:14:13.220Z,21.27
2024-01-20T18:16:41.718Z,18.30
2024-01-20T18:19:19.688Z,17.08
2024-01-20T18:21:47.480Z,19.05
2024-01-20T18:24:14.937Z,15.15
2024-01-20T18:26:42.256Z,20.55
2024-01-20T18:29:09.290Z,16.70
2024-01-20T18:31:36.692Z,16.13
2024-01-20T18:34:04.259Z,16.77
2024-01-20T18:36:31.691Z,18.10
2024-01-20T18:39:02.386Z,18.25
2024-01-20T18:41:38.684Z,17.05
2024-01-20T18:44:05.735Z,15.52
2024-01-20T18:46:33.138Z,19.77
2024-01-20T18:49:00.732Z,16.13
2024-01-20T18:51:28.229Z,19.42
2024-01-20T18:53:55.526Z,19.13
2024-01-20T18:56:22.739Z,19.85
2024-01-20T18:58:49.956Z,16.73
2024-01-20T19:01:17.355Z,17.52
2024-01-20T19:03:44.589Z,15.30
2024-01-20T19:06:12.723Z,18.23
2024-01-20T19:08:39.957Z,21.25
2024-01-20T19:11:08.791Z,16.17
2024-01-20T19:13:35.896Z,19.00
2024-01-20T19:16:03.675Z,15.60
2024-01-20T19:18:31.123Z,14.05
2024-01-20T19:20:58.604Z,14.23
2024-01-20T19:23:25.940Z,16.65
2024-01-20T19:26:00.938Z,13.13
2024-01-20T19:28:46.468Z,16.70
2024-01-20T19:31:14.878Z,15.52
2024-01-20T19:33:46.694Z,14.45
2024-01-20T19:36:14.682Z,13.48
2024-01-20T19:38:50.453Z,16.90
2024-01-20T19:41:18.074Z,17.48
2024-01-20T19:43:45.829Z,18.70
2024-01-20T19:46:32.570Z,18.70
2024-01-20T19:49:18.883Z,16.50
2024-01-20T19:52:00.784Z,19.48
2024-01-20T19:54:28.120Z,17.75
2024-01-20T19:56:55.444Z,21.27
2024-01-20T19:59:22.491Z,22.40
2024-01-20T20:01:49.833Z,16.40
2024-01-20T20:04:37.868Z,17.15
2024-01-20T20:07:09.658Z,17.75
2024-01-20T20:10:04.717Z,17.60
2024-01-20T20:12:34.312Z,18.77
2024-01-20T20:15:14.973Z,14.68
2024-01-20T20:17:45.415Z,20.75
2024-01-20T20:20:13.368Z,22.73
2024-01-20T20:22:40.706Z,15.88
2024-01-20T20:25:27.247Z,15.05
2024-01-20T20:28:08.963Z,18.65
2024-01-20T20:30:36.068Z,16.98
2024-01-20T20:33:07.659Z,15.65
2024-01-20T20:35:36.566Z,16.85
2024-01-20T20:38:05.413Z,17.80
2024-01-20T20:41:17.121Z,14.48
2024-01-20T20:43:44.504Z,16.38
2024-01-20T20:46:11.765Z,19.40
2024-01-20T20:48:39.178Z,15.60
2024-01-20T20:51:06.169Z,20.33
2024-01-20T20:53:33.419Z,19.20
2024-01-20T20:56:00.864Z,26.27
2024-01-20T20:58:29.535Z,24.42
2024-01-20T21:00:56.882Z,19.92
2024-01-20T21:03:24.375Z,20.05
2024-01-20T21:06:31.051Z,21.60
2024-01-20T21:09:10.493Z,26.00
2024-01-20T21:11:40.306Z,17.50
2024-01-20T21:14:26.285Z,18.52
2024-01-20T21:16:58.563Z,20.83
2024-01-20T21:19:25.937Z,17.65
2024-01-20T21:21:53.148Z,20.67
2024-01-20T21:24:23.890Z,17.52
2024-01-20T21:26:50.905Z,19.17
2024-01-20T21:29:18.198Z,22.42
2024-01-20T21:31:45.521Z,21.40
2024-01-20T21:34:14.541Z,22.52
2024-01-20T21:36:41.732Z,20.35
2024-01-20T21:39:11.007Z,20.95
2024-01-20T21:41:38.249Z,22.73
2024-01-20T21:44:07.720Z,18.40
2024-01-20T21:46:35.864Z,20.15
2024-01-20T21:49:04.105Z,24.15
2024-01-20T21:51:31.341Z,21.92
2024-01-20T21:53:58.774Z,18.90
2024-01-20T21:56:25.921Z,19.17
2024-01-20T21:58:53.408Z,24.05
2024-01-20T22:01:21.858Z,23.63
2024-01-20T22:03:49.495Z,21.25
2024-01-20T22:06:16.562Z,21.98
2024-01-20T22:08:43.902Z,21.65
2024-01-20T22:11:10.981Z,23.30
2024-01-20T22:13:38.699Z,22.60
2024-01-20T22:16:06.466Z,31.10
2024-01-20T22:18:33.775Z,22.85
2024-01-20T22:21:01.703Z,24.20
2024-01-20T22:23:28.890Z,24.45
2024-01-20T22:25:55.935Z,20.85
2024-01-20T22:28:41.266Z,31.10
2024-01-20T22:31:24.332Z,30.25
2024-01-20T22:33:52.045Z,23.77
2024-01-20T22:36:19.120Z,24.20
2024-01-20T22:38:46.776Z,23.88
2024-01-20T22:41:17.547Z,20.35
2024-01-20T22:43:47.597Z,21.77
2024-01-20T22:46:18.421Z,28.17
2024-01-20T22:48:46.600Z,26.20
2024-01-20T22:51:24.112Z,23.05
2024-01-20T22:53:52.184Z,23.83
2024-01-20T22:56:19.232Z,23.38
2024-01-20T22:58:46.863Z,25.90
2024-01-20T23:01:17.246Z,28.52
2024-01-20T23:03:45.766Z,33.55
2024-01-20T23:06:12.982Z,46.80
2024-01-20T23:08:40.502Z,37.20
2024-01-20T23:11:09.263Z,39.22
2024-01-20T23:13:36.661Z,30.83
2024-01-20T23:16:23.588Z,28.02
2024-01-20T23:18:50.969Z,29.58
2024-01-20T23:21:18.077Z,29.65
2024-01-20T23:23:45.697Z,30.50
2024-01-20T23:26:16.312Z,23.52
2024-01-20T23:28:46.185Z,21.75
2024-01-20T23:31:13.180Z,27.02
2024-01-20T23:33:40.676Z,24.05
2024-01-20T23:36:08.371Z,24.23
2024-01-20T23:38:35.766Z,27.85
2024-01-20T23:41:02.755Z,27.27
2024-01-20T23:43:30.036Z,29.77
2024-01-20T23:45:56.969Z,31.83
2024-01-20T23:48:24.316Z,28.92
2024-01-20T23:50:51.406Z,28.58
2024-01-20T23:53:18.714Z,29.58
2024-01-20T23:55:45.654Z,27.58
2024-01-20T23:58:13.162Z,30.30
